createdAt,value
2017-08-25T00:02:03.240Z,19.89
2017-08-25T00:04:30.994Z,19.90
2017-08-25T00:06:58.661Z,19.93
2017-08-25T00:09:26.303Z,19.94
2017-08-25T00:11:53.934Z,19.90
2017-08-25T00:14:21.539Z,19.91
2017-08-25T00:16:49.143Z,19.88
2017-08-25T00:19:16.886Z,19.81
2017-08-25T00:21:44.721Z,19.76
2017-08-25T00:24:12.358Z,19.82
2017-08-25T00:26:39.951Z,19.90
2017-08-25T00:29:07.583Z,19.98
2017-08-25T00:31:35.182Z,19.96
2017-08-25T00:34:02.827Z,19.86
2017-08-25T00:36:30.446Z,19.83
2017-08-25T00:38:58.128Z,19.73
2017-08-25T00:41:25.716Z,19.69
2017-08-25T00:43:53.319Z,19.71
2017-08-25T00:46:21.112Z,19.72
2017-08-25T00:48:48.710Z,19.56
2017-08-25T00:51:16.347Z,19.43
2017-08-25T00:53:43.955Z,19.50
2017-08-25T00:56:11.599Z,19.57
2017-08-25T00:58:39.178Z,19.62
2017-08-25T01:01:06.811Z,19.60
2017-08-25T01:03:34.408Z,19.56
2017-08-25T01:06:02.041Z,19.48
2017-08-25T01:08:29.734Z,19.45
2017-08-25T01:10:57.374Z,19.40
2017-08-25T01:13:25.002Z,19.35
2017-08-25T01:15:52.623Z,19.40
2017-08-25T01:18:20.228Z,19.39
2017-08-25T01:20:47.810Z,19.51
2017-08-25T01:23:15.435Z,19.47
2017-08-25T01:25:43.022Z,19.40
2017-08-25T01:28:10.666Z,19.31
2017-08-25T01:30:38.275Z,19.27
2017-08-25T01:33:05.894Z,19.27
2017-08-25T01:35:33.492Z,19.14
2017-08-25T01:38:01.223Z,19.07
2017-08-25T01:40:28.878Z,19.13
2017-08-25T01:42:56.498Z,19.15
2017-08-25T01:45:24.098Z,19.11
2017-08-25T01:47:51.703Z,19.11
2017-08-25T01:50:19.289Z,19.17
2017-08-25T01:52:46.915Z,19.26
2017-08-25T01:55:14.506Z,19.24
2017-08-25T01:57:42.138Z,19.14
2017-08-25T02:00:09.746Z,19.19
2017-08-25T02:02:37.354Z,19.17
2017-08-25T02:05:04.975Z,19.11
2017-08-25T02:07:32.573Z,19.16
2017-08-25T02:10:00.199Z,19.19
2017-08-25T02:12:27.887Z,19.17
2017-08-25T02:14:55.530Z,19.16
2017-08-25T02:17:23.135Z,19.20
2017-08-25T02:19:50.762Z,19.23
2017-08-25T02:22:18.359Z,19.14
2017-08-25T02:24:45.995Z,19.10
2017-08-25T02:27:13.599Z,19.05
2017-08-25T02:29:41.240Z,18.97
2017-08-25T02:32:08.846Z,18.98
2017-08-25T02:34:36.478Z,18.99
2017-08-25T02:37:04.120Z,19.09
2017-08-25T02:39:31.776Z,18.98
2017-08-25T02:41:59.362Z,18.87
2017-08-25T02:44:26.994Z,18.86
2017-08-25T02:46:54.586Z,18.87
2017-08-25T02:49:22.203Z,18.83
2017-08-25T02:51:49.801Z,18.78
2017-08-25T02:54:17.539Z,18.74
2017-08-25T02:56:45.118Z,18.73
2017-08-25T02:59:12.735Z,18.80
2017-08-25T03:01:40.362Z,18.88
2017-08-25T03:04:07.975Z,18.79
2017-08-25T03:06:35.575Z,18.67
2017-08-25T03:09:03.187Z,18.56
2017-08-25T03:11:30.766Z,18.57
2017-08-25T03:13:58.378Z,18.59
2017-08-25T03:16:25.994Z,18.54
2017-08-25T03:18:53.630Z,18.37
2017-08-25T03:21:21.223Z,18.18
2017-08-25T03:23:48.862Z,18.04
2017-08-25T03:26:16.442Z,17.92
2017-08-25T03:28:44.154Z,17.86
2017-08-25T03:31:11.806Z,17.75
2017-08-25T03:33:39.414Z,17.62
2017-08-25T03:36:07.035Z,17.52
2017-08-25T03:38:34.630Z,17.62
2017-08-25T03:41:02.258Z,17.65
2017-08-25T03:43:29.890Z,17.78
2017-08-25T03:45:57.500Z,17.88
2017-08-25T03:48:25.089Z,17.96
2017-08-25T03:50:52.767Z,18.02
2017-08-25T03:53:20.366Z,17.85
2017-08-25T03:55:48.071Z,17.77
2017-08-25T03:58:15.686Z,17.58
2017-08-25T04:00:43.318Z,17.35
2017-08-25T04:03:10.914Z,17.15
2017-08-25T04:05:38.535Z,17.06
2017-08-25T04:08:06.166Z,17.03
2017-08-25T04:10:33.856Z,16.92
2017-08-25T04:13:01.466Z,16.87
2017-08-25T04:15:29.090Z,16.87
2017-08-25T04:17:56.699Z,17.03
2017-08-25T04:20:24.319Z,17.11
2017-08-25T04:22:51.918Z,17.14
2017-08-25T04:25:19.534Z,17.18
2017-08-25T04:27:47.130Z,17.27
2017-08-25T04:30:14.766Z,17.40
2017-08-25T04:32:42.342Z,17.48
2017-08-25T04:35:09.951Z,17.50
2017-08-25T04:37:37.554Z,17.55
2017-08-25T04:40:05.172Z,17.43
2017-08-25T04:42:32.762Z,17.28
2017-08-25T04:45:00.504Z,17.29
2017-08-25T04:47:28.105Z,17.26
2017-08-25T04:49:55.767Z,17.19
2017-08-25T04:52:23.376Z,17.24
2017-08-25T04:54:51.003Z,17.33
2017-08-25T04:57:18.603Z,17.40
2017-08-25T04:59:46.220Z,17.48
2017-08-25T05:02:13.814Z,17.45
2017-08-25T05:04:41.447Z,17.48
2017-08-25T05:07:09.046Z,17.37
2017-08-25T05:09:36.668Z,17.26
2017-08-25T05:12:04.334Z,17.39
2017-08-25T05:14:31.954Z,17.46
2017-08-25T05:16:59.538Z,17.58
2017-08-25T05:19:27.185Z,17.65
2017-08-25T05:21:54.786Z,17.78
2017-08-25T05:24:22.367Z,17.94
2017-08-25T05:26:49.987Z,18.07
2017-08-25T05:29:17.643Z,18.41
2017-08-25T05:31:45.243Z,18.60
2017-08-25T05:34:12.832Z,18.81
2017-08-25T05:36:40.465Z,19.00
2017-08-25T05:39:08.067Z,19.03
2017-08-25T05:41:35.691Z,18.91
2017-08-25T05:44:03.283Z,19.00
2017-08-25T05:46:30.954Z,19.05
2017-08-25T05:48:58.623Z,19.20
2017-08-25T05:51:26.255Z,19.33
2017-08-25T05:53:53.875Z,19.38
2017-08-25T05:56:21.897Z,19.39
2017-08-25T05:58:49.651Z,19.41
2017-08-25T06:01:17.268Z,19.48
2017-08-25T06:03:44.860Z,19.52
2017-08-25T06:06:12.604Z,19.56
2017-08-25T06:08:40.386Z,19.61
2017-08-25T06:11:08.179Z,19.59
2017-08-25T06:13:35.834Z,19.59
2017-08-25T06:16:03.431Z,19.32
2017-08-25T06:18:31.103Z,19.20
2017-08-25T06:20:58.694Z,19.26
2017-08-25T06:23:26.347Z,19.38
2017-08-25T06:25:53.975Z,19.47
2017-08-25T06:28:21.614Z,19.50
2017-08-25T06:30:49.217Z,19.58
2017-08-25T06:33:16.887Z,19.57
2017-08-25T06:35:44.487Z,19.52
2017-08-25T06:38:12.106Z,19.48
2017-08-25T06:40:39.755Z,19.52
2017-08-25T06:43:07.373Z,19.58
2017-08-25T06:45:35.031Z,19.54
2017-08-25T06:48:02.701Z,19.29
2017-08-25T06:50:30.315Z,19.05
2017-08-25T06:52:57.923Z,18.84
2017-08-25T06:55:25.546Z,18.75
2017-08-25T06:57:53.177Z,18.71
2017-08-25T07:00:20.798Z,18.74
2017-08-25T07:02:48.426Z,18.83
2017-08-25T07:05:16.033Z,18.75
2017-08-25T07:07:43.702Z,18.76
2017-08-25T07:10:11.294Z,18.67
2017-08-25T07:12:38.953Z,18.68
2017-08-25T07:15:06.582Z,18.76
2017-08-25T07:17:34.182Z,18.88
2017-08-25T07:20:01.954Z,19.04
2017-08-25T07:22:29.595Z,19.18
2017-08-25T07:24:57.207Z,19.27
2017-08-25T07:27:24.874Z,19.21
2017-08-25T07:29:52.515Z,19.13
2017-08-25T07:32:20.984Z,19.15
2017-08-25T07:34:48.598Z,19.23
2017-08-25T07:37:16.234Z,19.23
2017-08-25T07:39:43.843Z,19.20
2017-08-25T07:42:11.533Z,19.22
2017-08-25T07:44:39.134Z,19.28
2017-08-25T07:47:06.770Z,19.33
2017-08-25T07:49:34.427Z,19.35
2017-08-25T07:52:02.025Z,19.43
2017-08-25T07:54:29.710Z,19.50
2017-08-25T07:56:57.363Z,19.52
2017-08-25T07:59:25.007Z,19.48
2017-08-25T08:01:52.695Z,19.54
2017-08-25T08:04:20.326Z,19.57
2017-08-25T08:06:48.077Z,19.60
2017-08-25T08:09:15.754Z,19.71
2017-08-25T08:11:43.386Z,19.81
2017-08-25T08:14:11.009Z,19.79
2017-08-25T08:16:38.618Z,19.91
2017-08-25T08:19:06.260Z,20.03
2017-08-25T08:21:33.879Z,20.06
2017-08-25T08:24:01.485Z,20.10
2017-08-25T08:26:29.122Z,20.21
2017-08-25T08:28:56.728Z,20.31
2017-08-25T08:31:24.362Z,20.30
2017-08-25T08:33:51.978Z,20.37
2017-08-25T08:36:25.114Z,20.47
2017-08-25T08:38:52.733Z,20.50
2017-08-25T08:41:20.370Z,20.51
2017-08-25T08:43:48.036Z,20.55
2017-08-25T08:46:15.666Z,20.57
2017-08-25T08:48:43.319Z,20.71
2017-08-25T08:51:10.983Z,20.79
2017-08-25T08:53:38.591Z,20.84
2017-08-25T08:56:06.247Z,20.87
2017-08-25T08:58:33.842Z,20.93
2017-08-25T09:01:01.480Z,21.05
2017-08-25T09:03:29.077Z,21.09
2017-08-25T09:06:02.145Z,21.15
2017-08-25T09:08:29.734Z,21.30
2017-08-25T09:10:57.323Z,21.37
2017-08-25T09:13:24.972Z,21.43
2017-08-25T09:15:52.567Z,21.65
2017-08-25T09:18:20.187Z,21.73
2017-08-25T09:20:47.799Z,21.81
2017-08-25T09:23:15.419Z,21.89
2017-08-25T09:25:43.006Z,21.99
2017-08-25T09:28:10.639Z,22.04
2017-08-25T09:30:38.258Z,22.14
2017-08-25T09:33:05.887Z,22.16
2017-08-25T09:35:33.491Z,22.16
2017-08-25T09:38:01.111Z,22.30
2017-08-25T09:40:28.702Z,22.48
2017-08-25T09:42:56.331Z,22.59
2017-08-25T09:45:23.950Z,22.68
2017-08-25T09:47:51.606Z,22.85
2017-08-25T09:50:19.198Z,22.99
2017-08-25T09:52:46.887Z,23.01
2017-08-25T09:55:14.488Z,23.15
2017-08-25T09:57:42.110Z,23.27
2017-08-25T10:00:09.803Z,23.36
2017-08-25T10:02:37.434Z,23.46
2017-08-25T10:05:05.152Z,23.62
2017-08-25T10:07:32.798Z,23.71
2017-08-25T10:10:00.388Z,23.78
2017-08-25T10:12:28.014Z,23.89
2017-08-25T10:14:55.626Z,23.92
2017-08-25T10:17:23.255Z,24.05
2017-08-25T10:19:50.847Z,24.26
2017-08-25T10:22:18.465Z,24.40
2017-08-25T10:24:46.064Z,24.29
2017-08-25T10:27:13.723Z,24.36
2017-08-25T10:29:41.295Z,24.51
2017-08-25T10:32:09.006Z,24.55
2017-08-25T10:37:48.480Z,24.74
2017-08-25T10:40:27.798Z,24.83
2017-08-25T10:43:07.400Z,24.91
2017-08-25T10:45:34.993Z,25.06
2017-08-25T10:48:02.618Z,25.20
2017-08-25T10:50:30.210Z,25.37
2017-08-25T10:52:57.838Z,25.48
2017-08-25T10:55:25.502Z,25.47
2017-08-25T10:57:53.129Z,25.42
2017-08-25T11:00:20.714Z,25.33
2017-08-25T11:02:48.347Z,25.56
2017-08-25T11:05:16.071Z,25.68
2017-08-25T11:07:43.699Z,25.56
2017-08-25T11:10:11.410Z,25.42
2017-08-25T11:12:39.031Z,25.39
2017-08-25T11:15:06.646Z,25.59
2017-08-25T11:17:34.264Z,25.68
2017-08-25T11:20:01.898Z,25.83
2017-08-25T11:22:29.554Z,26.02
2017-08-25T11:24:57.187Z,26.26
2017-08-25T11:27:24.826Z,26.46
2017-08-25T11:29:52.481Z,26.61
2017-08-25T11:32:20.860Z,26.42
2017-08-25T11:34:48.595Z,26.37
2017-08-25T11:37:16.300Z,26.68
2017-08-25T11:39:43.911Z,27.03
2017-08-25T11:42:11.510Z,26.62
2017-08-25T11:44:39.130Z,26.16
2017-08-25T11:47:06.729Z,25.93
2017-08-25T11:49:34.347Z,25.92
2017-08-25T11:52:01.946Z,25.70
2017-08-25T11:54:29.570Z,25.65
2017-08-25T11:56:57.284Z,25.74
2017-08-25T11:59:24.927Z,25.74
2017-08-25T12:01:52.536Z,25.79
2017-08-25T12:04:20.161Z,25.74
2017-08-25T12:06:47.758Z,25.58
2017-08-25T12:09:15.378Z,25.45
2017-08-25T12:11:43.025Z,25.46
2017-08-25T12:14:10.662Z,25.31
2017-08-25T12:16:38.246Z,25.22
2017-08-25T12:19:05.890Z,25.18
2017-08-25T12:21:33.490Z,25.20
2017-08-25T12:24:01.123Z,25.22
2017-08-25T12:26:28.722Z,25.28
2017-08-25T12:28:56.351Z,25.36
2017-08-25T12:31:23.955Z,25.57
2017-08-25T12:33:51.586Z,25.63
2017-08-25T12:36:19.212Z,25.93
2017-08-25T12:38:46.914Z,26.02
2017-08-25T12:41:14.506Z,25.93
2017-08-25T12:43:42.138Z,25.96
2017-08-25T12:46:09.750Z,26.19
2017-08-25T12:48:37.377Z,26.64
2017-08-25T12:51:04.976Z,27.11
2017-08-25T12:53:32.711Z,27.37
2017-08-25T12:56:00.292Z,27.54
2017-08-25T12:58:27.923Z,27.37
2017-08-25T13:00:55.518Z,27.24
2017-08-25T13:03:23.284Z,27.43
2017-08-25T13:05:50.875Z,27.39
2017-08-25T13:08:18.717Z,27.26
2017-08-25T13:10:46.461Z,27.08
2017-08-25T13:13:14.091Z,26.59
2017-08-25T13:15:41.695Z,26.44
2017-08-25T13:18:09.354Z,26.57
2017-08-25T13:20:36.983Z,26.57
2017-08-25T13:23:04.594Z,26.44
2017-08-25T13:25:32.218Z,26.38
2017-08-25T13:27:59.885Z,26.47
2017-08-25T13:30:27.477Z,26.48
2017-08-25T13:32:55.101Z,26.44
2017-08-25T13:35:22.694Z,26.55
2017-08-25T13:37:50.351Z,26.73
2017-08-25T13:40:17.952Z,26.89
2017-08-25T13:42:45.606Z,26.85
2017-08-25T13:45:13.231Z,26.70
2017-08-25T13:47:40.943Z,26.45
2017-08-25T13:50:08.577Z,26.37
2017-08-25T13:52:36.170Z,26.26
2017-08-25T13:55:03.798Z,26.12
2017-08-25T13:57:31.387Z,26.06
2017-08-25T13:59:59.014Z,25.93
2017-08-25T14:02:26.610Z,25.92
2017-08-25T14:04:54.246Z,25.96
2017-08-25T14:07:21.834Z,26.03
2017-08-25T14:09:49.464Z,25.97
2017-08-25T14:12:17.063Z,25.88
2017-08-25T14:14:44.703Z,25.88
2017-08-25T14:17:12.295Z,26.08
2017-08-25T14:19:39.915Z,26.43
2017-08-25T14:22:07.530Z,26.51
2017-08-25T14:24:35.157Z,26.55
2017-08-25T14:27:02.763Z,26.55
2017-08-25T14:29:30.441Z,26.56
2017-08-25T14:31:58.039Z,26.51
2017-08-25T14:34:25.743Z,26.38
2017-08-25T14:36:53.371Z,26.26
2017-08-25T14:39:20.995Z,26.07
2017-08-25T14:41:48.655Z,25.95
2017-08-25T14:44:16.270Z,25.90
2017-08-25T14:46:43.914Z,25.87
2017-08-25T14:49:11.529Z,25.77
2017-08-25T14:51:39.139Z,25.63
2017-08-25T14:54:06.739Z,25.65
2017-08-25T14:56:34.358Z,25.74
2017-08-25T14:59:01.950Z,25.77
2017-08-25T15:01:29.594Z,25.77
2017-08-25T15:03:57.226Z,25.81
2017-08-25T15:06:24.858Z,25.88
2017-08-25T15:08:52.455Z,26.01
2017-08-25T15:11:20.082Z,26.07
2017-08-25T15:13:47.689Z,26.14
2017-08-25T15:16:15.383Z,26.21
2017-08-25T15:18:42.981Z,26.50
2017-08-25T15:21:10.611Z,26.81
2017-08-25T15:23:38.214Z,27.10
2017-08-25T15:26:05.857Z,27.11
2017-08-25T15:28:33.451Z,27.13
2017-08-25T15:31:01.046Z,27.14
2017-08-25T15:33:28.691Z,27.06
2017-08-25T15:35:56.290Z,26.95
2017-08-25T15:38:23.932Z,26.83
2017-08-25T15:40:51.535Z,26.72
2017-08-25T15:43:19.175Z,26.72
2017-08-25T15:45:46.769Z,26.65
2017-08-25T15:48:14.384Z,26.65
2017-08-25T15:50:42.045Z,26.52
2017-08-25T15:53:09.698Z,26.40
2017-08-25T15:55:37.292Z,26.23
2017-08-25T15:58:04.952Z,26.17
2017-08-25T16:00:32.531Z,26.12
2017-08-25T16:03:00.174Z,26.13
2017-08-25T16:05:27.985Z,26.14
2017-08-25T16:07:55.656Z,26.10
2017-08-25T16:10:23.274Z,26.05
2017-08-25T16:12:50.904Z,25.94
2017-08-25T16:15:18.608Z,25.85
2017-08-25T16:17:46.271Z,25.81
2017-08-25T16:20:13.862Z,25.66
2017-08-25T16:22:41.542Z,25.51
2017-08-25T16:25:09.138Z,25.28
2017-08-25T16:27:36.781Z,25.25
2017-08-25T16:30:04.688Z,25.24
2017-08-25T16:32:32.321Z,25.24
2017-08-25T16:34:59.983Z,25.27
2017-08-25T16:37:27.595Z,25.29
2017-08-25T16:39:55.335Z,25.30
2017-08-25T16:42:22.962Z,25.39
2017-08-25T16:44:50.562Z,25.41
2017-08-25T16:47:18.206Z,25.46
2017-08-25T16:49:45.830Z,25.47
2017-08-25T16:52:13.517Z,25.48
2017-08-25T16:54:41.158Z,25.50
2017-08-25T16:57:08.755Z,25.53
2017-08-25T16:59:36.416Z,25.52
2017-08-25T17:02:04.015Z,25.49
2017-08-25T17:04:31.654Z,25.46
2017-08-25T17:06:59.263Z,25.45
2017-08-25T17:09:26.887Z,25.38
2017-08-25T17:11:54.470Z,25.30
2017-08-25T17:14:22.108Z,25.30
2017-08-25T17:16:49.719Z,25.41
2017-08-25T17:19:17.370Z,25.44
2017-08-25T17:21:44.972Z,25.44
2017-08-25T17:24:12.591Z,25.43
2017-08-25T17:26:40.230Z,25.41
2017-08-25T17:29:07.850Z,25.37
2017-08-25T17:31:35.485Z,25.31
2017-08-25T17:34:03.122Z,25.26
2017-08-25T17:36:30.702Z,25.27
2017-08-25T17:38:58.338Z,25.23
2017-08-25T17:41:25.922Z,25.17
2017-08-25T17:43:53.564Z,25.16
2017-08-25T17:46:21.167Z,25.09
2017-08-25T17:48:48.759Z,25.06
2017-08-25T17:51:16.375Z,25.05
2017-08-25T17:53:44.008Z,25.12
2017-08-25T17:56:11.614Z,25.11
2017-08-25T17:58:39.206Z,25.11
2017-08-25T18:01:06.842Z,25.10
2017-08-25T18:03:34.461Z,25.08
2017-08-25T18:06:02.106Z,25.07
2017-08-25T18:08:29.708Z,25.08
2017-08-25T18:10:57.323Z,25.05
2017-08-25T18:13:24.969Z,24.98
2017-08-25T18:15:52.617Z,24.95
2017-08-25T18:18:20.291Z,24.93
2017-08-25T18:20:47.923Z,24.91
2017-08-25T18:23:15.528Z,24.94
2017-08-25T18:25:43.147Z,24.88
2017-08-25T18:28:10.765Z,24.77
2017-08-25T18:30:38.394Z,24.55
2017-08-25T18:33:05.990Z,24.43
2017-08-25T18:35:33.629Z,24.41
2017-08-25T18:38:01.243Z,24.45
2017-08-25T18:40:28.867Z,24.46
2017-08-25T18:42:56.465Z,24.44
2017-08-25T18:45:24.098Z,24.43
2017-08-25T18:47:51.717Z,24.44
2017-08-25T18:50:19.387Z,24.47
2017-08-25T18:52:46.998Z,24.45
2017-08-25T18:55:14.736Z,24.47
2017-08-25T18:57:42.336Z,24.47
2017-08-25T19:00:09.942Z,24.45
2017-08-25T19:02:37.579Z,24.36
2017-08-25T19:05:05.170Z,24.18
2017-08-25T19:07:32.853Z,24.05
2017-08-25T19:10:00.463Z,23.99
2017-08-25T19:12:28.086Z,23.93
2017-08-25T19:14:55.726Z,23.93
2017-08-25T19:17:23.391Z,23.93
2017-08-25T19:19:51.135Z,24.00
2017-08-25T19:22:18.760Z,24.01
2017-08-25T19:24:46.354Z,23.99
2017-08-25T19:27:13.986Z,23.97
2017-08-25T19:29:41.624Z,23.90
2017-08-25T19:32:09.427Z,23.92
2017-08-25T19:34:37.026Z,23.92
2017-08-25T19:37:04.658Z,23.93
2017-08-25T19:39:32.287Z,23.97
2017-08-25T19:41:59.924Z,24.05
2017-08-25T19:44:27.547Z,24.09
2017-08-25T19:46:55.183Z,24.15
2017-08-25T19:49:22.803Z,24.20
2017-08-25T19:51:50.439Z,24.21
2017-08-25T19:54:18.138Z,24.19
2017-08-25T19:56:45.774Z,24.17
2017-08-25T19:59:13.434Z,24.11
2017-08-25T20:01:41.069Z,24.07
2017-08-25T20:04:08.670Z,24.03
2017-08-25T20:06:36.321Z,24.01
2017-08-25T20:09:03.922Z,23.84
2017-08-25T20:11:31.571Z,23.74
2017-08-25T20:13:59.173Z,23.73
2017-08-25T20:16:26.836Z,23.75
2017-08-25T20:18:54.450Z,23.76
2017-08-25T20:21:22.087Z,23.77
2017-08-25T20:23:49.683Z,23.78
2017-08-25T20:26:17.316Z,23.72
2017-08-25T20:28:44.923Z,23.70
2017-08-25T20:31:12.574Z,23.71
2017-08-25T20:33:40.198Z,23.67
2017-08-25T20:36:07.839Z,23.65
2017-08-25T20:38:35.439Z,23.64
2017-08-25T20:41:03.076Z,23.61
2017-08-25T20:43:30.672Z,23.61
2017-08-25T20:45:58.311Z,23.61
2017-08-25T20:48:25.902Z,23.58
2017-08-25T20:50:53.534Z,23.55
2017-08-25T20:53:21.128Z,23.51
2017-08-25T20:55:48.773Z,23.48
2017-08-25T20:58:16.366Z,23.43
2017-08-25T21:00:44.148Z,23.44
2017-08-25T21:03:11.766Z,23.48
2017-08-25T21:05:39.374Z,23.49
2017-08-25T21:08:07.007Z,23.49
2017-08-25T21:10:34.686Z,23.48
2017-08-25T21:13:02.419Z,23.46
2017-08-25T21:15:30.144Z,23.35
2017-08-25T21:17:57.758Z,23.21
2017-08-25T21:20:25.397Z,23.20
2017-08-25T21:22:53.006Z,23.25
2017-08-25T21:25:20.839Z,23.30
2017-08-25T21:27:48.443Z,23.30
2017-08-25T21:30:16.143Z,23.30
2017-08-25T21:32:43.757Z,23.32
2017-08-25T21:35:11.360Z,23.32
2017-08-25T21:37:38.993Z,23.35
2017-08-25T21:40:06.604Z,23.33
2017-08-25T21:42:34.287Z,23.32
2017-08-25T21:45:01.870Z,23.31
2017-08-25T21:47:29.505Z,23.29
2017-08-25T21:49:57.117Z,23.21
2017-08-25T21:52:24.749Z,23.08
2017-08-25T21:54:52.359Z,23.01
2017-08-25T21:57:20.068Z,22.99
2017-08-25T21:59:47.671Z,22.87
2017-08-25T22:02:15.310Z,22.89
2017-08-25T22:04:42.902Z,22.96
2017-08-25T22:07:10.542Z,23.03
2017-08-25T22:09:38.151Z,23.11
2017-08-25T22:12:05.790Z,23.15
2017-08-25T22:14:33.387Z,23.08
2017-08-25T22:17:01.024Z,22.94
2017-08-25T22:19:28.618Z,22.77
2017-08-25T22:21:56.283Z,22.49
2017-08-25T22:24:23.886Z,22.40
2017-08-25T22:26:51.531Z,22.33
2017-08-25T22:29:19.150Z,22.28
2017-08-25T22:31:46.806Z,22.25
2017-08-25T22:34:14.417Z,22.10
2017-08-25T22:36:42.060Z,21.92
2017-08-25T22:39:09.677Z,21.88
2017-08-25T22:41:37.301Z,21.88
2017-08-25T22:44:04.923Z,21.86
2017-08-25T22:46:32.717Z,21.91
2017-08-25T22:49:00.323Z,22.01
2017-08-25T22:51:27.962Z,22.06
2017-08-25T22:53:55.611Z,22.02
2017-08-25T22:56:23.402Z,21.89
2017-08-25T22:58:51.001Z,21.80
2017-08-25T23:01:18.629Z,21.81
2017-08-25T23:03:46.248Z,21.78
2017-08-25T23:06:13.850Z,21.78
2017-08-25T23:08:57.097Z,21.71
2017-08-25T23:14:15.175Z,21.76
2017-08-25T23:16:48.719Z,21.70
2017-08-25T23:19:22.078Z,21.68
2017-08-25T23:21:49.702Z,21.64
2017-08-25T23:24:17.298Z,21.64
2017-08-25T23:26:44.935Z,21.68
2017-08-25T23:29:12.583Z,21.63
2017-08-25T23:31:40.167Z,21.55
2017-08-25T23:34:07.959Z,21.58
2017-08-25T23:36:35.554Z,21.60
2017-08-25T23:39:03.345Z,21.51
2017-08-25T23:41:30.984Z,21.35
2017-08-25T23:43:58.587Z,21.31
2017-08-25T23:46:26.207Z,21.27
2017-08-25T23:48:53.844Z,21.19
2017-08-25T23:51:21.478Z,21.18
2017-08-25T23:53:49.301Z,21.24
2017-08-25T23:56:16.947Z,21.18
2017-08-25T23:58:44.656Z,21.15
